Time;durP1;ratioP1;P1;durP2;ratioP2;P2;SDS_P1;SDS_P2;PMS_P1;PMS_P2;Temp;Humidity;BMP_temperature;BMP_pressure;BME280_temperature;BME280_humidity;BME280_pressure;Samples;Min_cycle;Max_cycle;Signal;HPM_P1;HPM_P2
2023/05/18 00:00:01;;;;;;;10.30;1.85;;;7.80;99.90;;;;;;5068879;28;20054;-70
2023/05/18 00:02:26;;;;;;;9.95;1.63;;;7.80;99.90;;;;;;5058928;28;20054;-70
2023/05/18 00:04:52;;;;;;;8.82;1.88;;;7.70;99.90;;;;;;5068829;28;20654;-70
2023/05/18 00:07:18;;;;;;;10.00;2.00;;;7.70;99.90;;;;;;5068928;28;20045;-69
2023/05/18 00:09:43;;;;;;;10.15;1.88;;;7.70;99.90;;;;;;5068952;28;20048;-70
2023/05/18 00:12:09;;;;;;;8.82;1.58;;;7.70;99.90;;;;;;5060672;28;20045;-71
2023/05/18 00:14:35;;;;;;;9.65;2.05;;;7.70;99.90;;;;;;5067381;28;20479;-71
2023/05/18 00:17:00;;;;;;;8.73;1.83;;;7.70;99.90;;;;;;5069013;28;20076;-69
2023/05/18 00:19:28;;;;;;;10.52;1.80;;;7.60;99.90;;;;;;5068493;28;20095;-70
2023/05/18 00:21:57;;;;;;;8.93;1.90;;;7.90;99.90;;;;;;5069165;28;20056;-69
2023/05/18 00:24:23;;;;;;;12.65;2.08;;;7.60;99.90;;;;;;5072644;28;20036;-71
2023/05/18 00:26:49;;;;;;;8.18;1.83;;;7.60;99.90;;;;;;5063221;28;20040;-70
2023/05/18 00:29:14;;;;;;;9.32;1.98;;;7.50;99.90;;;;;;5072586;28;20495;-70
2023/05/18 00:31:41;;;;;;;9.45;2.22;;;7.50;99.90;;;;;;5072354;28;20182;-69
2023/05/18 00:34:08;;;;;;;12.45;2.13;;;7.60;99.90;;;;;;5066309;28;20122;-72
2023/05/18 00:36:35;;;;;;;7.60;1.77;;;7.40;99.90;;;;;;5051319;28;20055;-70
2023/05/18 00:39:03;;;;;;;9.30;2.05;;;8.00;99.90;;;;;;5063614;28;20044;-71
2023/05/18 00:41:29;;;;;;;8.85;2.03;;;7.40;99.90;;;;;;5072082;28;20048;-70
2023/05/18 00:43:56;;;;;;;9.52;1.55;;;7.40;99.90;;;;;;5062255;28;20045;-72
2023/05/18 00:46:26;;;;;;;8.25;1.60;;;7.40;99.90;;;;;;5072390;28;20434;-70
2023/05/18 00:48:53;;;;;;;5.70;1.50;;;7.40;99.90;;;;;;5072236;28;20064;-70
2023/05/18 00:51:22;;;;;;;10.77;1.75;;;7.50;99.90;;;;;;5063453;28;20775;-70
2023/05/18 00:53:48;;;;;;;12.40;2.08;;;7.30;99.90;;;;;;5071949;28;20059;-71
2023/05/18 00:56:14;;;;;;;7.18;1.90;;;7.30;99.90;;;;;;5072201;28;20453;-68
2023/05/18 00:58:41;;;;;;;9.82;2.28;;;7.30;99.90;;;;;;5072501;28;20036;-71
2023/05/18 01:01:10;;;;;;;9.10;1.90;;;7.20;99.90;;;;;;5072096;28;20053;-71
2023/05/18 01:03:37;;;;;;;7.13;1.80;;;7.20;99.90;;;;;;5072307;28;20408;-70
2023/05/18 01:06:08;;;;;;;6.65;1.80;;;7.30;99.90;;;;;;5071546;28;20636;-70
2023/05/18 01:08:35;;;;;;;8.43;1.88;;;7.20;99.90;;;;;;5062690;28;20094;-71
2023/05/18 01:11:06;;;;;;;6.85;1.85;;;7.40;99.90;;;;;;5071483;28;20044;-71
2023/05/18 01:13:52;;;;;;;7.07;2.00;;;7.20;99.90;;;;;;5062196;28;20083;-70
2023/05/18 01:16:25;;;;;;;10.07;1.88;;;7.20;99.90;;;;;;5071521;28;20041;-74
2023/05/18 01:19:12;;;;;;;9.73;1.85;;;7.30;99.90;;;;;;5071520;28;20063;-71
2023/05/18 01:22:02;;;;;;;5.38;1.50;;;7.20;99.90;;;;;;5071080;28;20506;-70
2023/05/18 01:24:47;;;;;;;6.95;2.05;;;7.20;99.90;;;;;;5053740;28;20048;-73
2023/05/18 01:27:16;;;;;;;3.87;1.73;;;7.20;99.90;;;;;;5071651;28;20052;-70
2023/05/18 01:29:44;;;;;;;7.47;2.00;;;7.20;99.90;;;;;;5071746;28;20080;-71
2023/05/18 01:32:20;;;;;;;6.93;1.90;;;7.20;99.90;;;;;;5071819;28;20044;-71
2023/05/18 01:34:48;;;;;;;8.07;2.38;;;7.20;99.90;;;;;;5070857;28;20051;-71
2023/05/18 01:37:13;;;;;;;10.38;1.85;;;7.20;99.90;;;;;;5071429;28;20044;-71
2023/05/18 01:39:40;;;;;;;6.32;1.60;;;7.20;99.90;;;;;;5071316;28;20041;-70
2023/05/18 01:42:13;;;;;;;10.90;2.08;;;7.20;99.90;;;;;;5067643;28;20084;-71
2023/05/18 01:44:44;;;;;;;3.97;1.83;;;7.20;99.90;;;;;;5068068;28;20045;-70
2023/05/18 01:47:13;;;;;;;6.70;1.85;;;7.30;99.90;;;;;;5063106;28;20416;-71
2023/05/18 01:49:55;;;;;;;11.48;1.85;;;7.30;99.90;;;;;;5071082;28;20085;-71
2023/05/18 01:52:26;;;;;;;6.85;1.85;;;7.30;99.90;;;;;;5055968;28;20041;-72
2023/05/18 01:54:56;;;;;;;5.95;1.63;;;7.30;99.90;;;;;;5069611;28;20087;-70
2023/05/18 01:57:26;;;;;;;8.43;1.98;;;7.30;99.90;;;;;;5063153;28;20048;-71
2023/05/18 01:59:53;;;;;;;6.65;1.75;;;7.30;99.90;;;;;;5062227;28;20051;-69
2023/05/18 02:02:19;;;;;;;11.63;1.92;;;7.30;99.90;;;;;;5061667;28;20045;-71
2023/05/18 02:04:44;;;;;;;8.32;1.80;;;7.30;99.90;;;;;;5061889;28;20044;-71
2023/05/18 02:07:10;;;;;;;6.25;1.90;;;7.40;99.90;;;;;;5060554;28;20047;-70
2023/05/18 02:09:36;;;;;;;7.97;1.75;;;7.40;99.90;;;;;;5070543;28;20491;-69
2023/05/18 02:12:01;;;;;;;7.80;1.65;;;7.40;99.90;;;;;;5068451;28;20102;-69
2023/05/18 02:14:27;;;;;;;7.80;2.00;;;7.40;99.90;;;;;;5070652;28;20097;-69
2023/05/18 02:16:53;;;;;;;8.15;1.85;;;7.40;99.90;;;;;;5069971;28;20112;-71
2023/05/18 02:19:19;;;;;;;8.82;1.92;;;7.40;99.90;;;;;;5061307;28;20048;-70
2023/05/18 02:21:45;;;;;;;10.35;2.05;;;7.30;99.90;;;;;;5061939;28;20044;-70
2023/05/18 02:24:11;;;;;;;6.60;1.90;;;7.50;99.90;;;;;;5069066;28;20040;-70
2023/05/18 02:26:38;;;;;;;10.43;1.80;;;7.40;99.90;;;;;;5067634;28;20403;-71
2023/05/18 02:29:05;;;;;;;9.88;1.60;;;7.40;99.90;;;;;;5068864;28;20052;-70
2023/05/18 02:31:31;;;;;;;13.45;1.80;;;7.40;99.90;;;;;;5070158;28;20080;-71
2023/05/18 02:33:57;;;;;;;9.25;1.60;;;7.50;99.90;;;;;;5069310;28;20138;-69
2023/05/18 02:36:23;;;;;;;10.57;2.20;;;7.50;99.90;;;;;;5061465;28;20190;-70
2023/05/18 02:38:49;;;;;;;8.18;1.88;;;7.50;99.90;;;;;;5068396;28;20051;-70
2023/05/18 02:41:15;;;;;;;10.85;2.10;;;7.80;99.90;;;;;;5069920;28;20462;-70
2023/05/18 02:43:40;;;;;;;10.10;1.92;;;7.50;99.90;;;;;;5061530;28;20047;-70
2023/05/18 02:46:06;;;;;;;10.00;2.05;;;7.50;99.90;;;;;;5058806;28;20037;-70
2023/05/18 02:48:32;;;;;;;7.18;1.55;;;7.50;99.90;;;;;;5061298;28;20559;-71
2023/05/18 02:50:58;;;;;;;9.77;1.95;;;7.50;99.90;;;;;;5069845;28;20109;-71
2023/05/18 02:53:24;;;;;;;6.25;2.00;;;7.50;99.90;;;;;;5069269;28;20068;-68
2023/05/18 02:55:56;;;;;;;12.70;2.35;;;8.10;99.90;;;;;;5064896;28;20981;-71
2023/05/18 02:58:24;;;;;;;9.68;1.88;;;7.60;99.90;;;;;;5062041;28;20603;-71
2023/05/18 03:00:51;;;;;;;9.45;1.90;;;7.60;99.90;;;;;;5069595;28;20090;-71
2023/05/18 03:03:17;;;;;;;8.25;1.90;;;7.60;99.90;;;;;;5061091;28;20704;-70
2023/05/18 03:05:43;;;;;;;8.27;1.92;;;7.60;99.90;;;;;;5061071;28;20446;-70
2023/05/18 03:08:09;;;;;;;11.88;1.80;;;7.60;99.90;;;;;;5069247;28;20128;-72
2023/05/18 03:10:36;;;;;;;9.40;1.70;;;7.60;99.90;;;;;;5060925;28;20044;-70
2023/05/18 03:13:02;;;;;;;14.80;1.85;;;7.60;99.90;;;;;;5060735;28;20542;-73
2023/05/18 03:15:31;;;;;;;8.57;2.30;;;7.60;99.90;;;;;;5069445;28;20040;-72
2023/05/18 03:18:00;;;;;;;10.35;2.00;;;7.60;99.90;;;;;;5060628;28;20040;-71
2023/05/18 03:20:26;;;;;;;7.88;1.63;;;7.60;99.90;;;;;;5060382;28;20087;-70
2023/05/18 03:22:52;;;;;;;10.15;1.50;;;7.60;99.90;;;;;;5069441;28;20132;-72
2023/05/18 03:25:18;;;;;;;10.75;2.13;;;7.60;99.90;;;;;;5061120;28;20124;-70
2023/05/18 03:27:43;;;;;;;9.57;2.28;;;7.60;99.90;;;;;;5069055;28;20052;-70
2023/05/18 03:30:09;;;;;;;9.23;1.80;;;7.90;99.90;;;;;;5069252;28;20130;-70
2023/05/18 03:32:35;;;;;;;10.90;2.00;;;7.60;99.90;;;;;;5069357;28;20063;-71
2023/05/18 03:35:03;;;;;;;9.07;1.90;;;7.60;99.90;;;;;;5069414;28;20045;-71
2023/05/18 03:37:29;;;;;;;10.02;2.25;;;7.60;99.90;;;;;;5069467;28;20102;-71
2023/05/18 03:40:06;;;;;;;9.98;2.00;;;7.60;99.90;;;;;;5068670;28;20044;-72
2023/05/18 03:42:32;;;;;;;5.45;1.40;;;7.60;99.90;;;;;;5059771;28;20045;-71
2023/05/18 03:44:58;;;;;;;9.80;2.03;;;7.60;99.90;;;;;;5068641;28;20097;-71
2023/05/18 03:47:23;;;;;;;15.85;1.85;;;7.70;99.90;;;;;;5067034;28;20524;-71
2023/05/18 03:49:49;;;;;;;12.40;1.98;;;7.60;99.90;;;;;;5069253;28;20072;-69
2023/05/18 03:52:20;;;;;;;9.80;1.80;;;7.70;99.90;;;;;;5069439;28;20041;-70
2023/05/18 03:54:48;;;;;;;11.75;1.88;;;7.70;99.90;;;;;;5065096;28;20551;-71
2023/05/18 03:57:13;;;;;;;12.93;1.92;;;7.70;99.90;;;;;;5061456;28;20511;-72
2023/05/18 03:59:39;;;;;;;9.32;2.15;;;7.70;99.90;;;;;;5073090;28;20045;-71
2023/05/18 04:02:05;;;;;;;9.27;1.90;;;7.70;99.90;;;;;;5062933;28;20052;-71
2023/05/18 04:04:30;;;;;;;9.50;1.75;;;7.70;99.90;;;;;;5073275;28;20396;-71
2023/05/18 04:06:56;;;;;;;10.70;2.13;;;8.00;99.90;;;;;;5072525;28;20450;-71
2023/05/18 04:09:22;;;;;;;10.50;1.85;;;7.80;99.90;;;;;;5046613;28;20076;-70
2023/05/18 04:11:48;;;;;;;6.68;1.90;;;7.80;99.90;;;;;;5067175;28;20083;-72
2023/05/18 04:14:15;;;;;;;8.93;2.58;;;8.00;99.90;;;;;;5072841;28;20740;-72
2023/05/18 04:16:42;;;;;;;8.15;1.75;;;7.80;99.90;;;;;;5072618;28;20495;-73
2023/05/18 04:19:07;;;;;;;9.10;2.38;;;7.80;99.90;;;;;;5070405;28;20080;-72
2023/05/18 04:21:34;;;;;;;12.43;2.53;;;7.90;99.90;;;;;;5072644;28;20447;-72
2023/05/18 04:24:05;;;;;;;12.02;2.30;;;7.90;99.90;;;;;;5072961;28;20045;-72
2023/05/18 04:26:35;;;;;;;8.65;1.73;;;8.00;99.90;;;;;;5072628;28;20102;-71
2023/05/18 04:29:01;;;;;;;14.50;2.45;;;8.00;99.90;;;;;;5064570;28;20090;-72
2023/05/18 04:31:28;;;;;;;13.73;2.08;;;8.00;99.90;;;;;;5073173;28;20088;-72
2023/05/18 04:33:54;;;;;;;8.13;1.90;;;8.30;99.90;;;;;;5071310;28;20127;-72
2023/05/18 04:36:24;;;;;;;6.40;2.13;;;8.00;99.90;;;;;;5072586;28;20559;-72
2023/05/18 04:38:50;;;;;;;8.13;2.28;;;8.00;99.90;;;;;;5072710;28;20052;-72
2023/05/18 04:41:19;;;;;;;8.85;2.00;;;8.00;99.90;;;;;;5071881;28;20121;-71
2023/05/18 04:43:46;;;;;;;13.23;2.55;;;8.10;99.90;;;;;;5072447;28;20517;-73
2023/05/18 04:46:12;;;;;;;7.65;1.92;;;8.10;99.90;;;;;;5072715;28;20044;-72
2023/05/18 04:48:38;;;;;;;10.38;2.45;;;8.20;99.90;;;;;;5064394;28;20036;-70
2023/05/18 04:51:05;;;;;;;7.32;2.67;;;8.20;99.90;;;;;;5063481;28;20041;-71
2023/05/18 04:53:32;;;;;;;11.35;2.55;;;8.20;99.90;;;;;;5072401;28;20068;-70
2023/05/18 04:55:59;;;;;;;12.32;2.10;;;8.20;99.90;;;;;;5071090;28;20130;-72
2023/05/18 04:58:26;;;;;;;13.93;2.60;;;8.30;99.90;;;;;;5064500;28;20041;-71
2023/05/18 05:00:52;;;;;;;8.48;2.40;;;8.30;99.90;;;;;;5071998;28;20088;-70
2023/05/18 05:03:18;;;;;;;9.02;2.50;;;8.80;99.90;;;;;;5068856;28;20068;-71
2023/05/18 05:05:43;;;;;;;12.63;2.58;;;8.40;99.90;;;;;;5064140;28;20068;-71
2023/05/18 05:08:09;;;;;;;7.82;2.35;;;8.40;99.90;;;;;;5071576;28;20078;-71
2023/05/18 05:10:35;;;;;;;6.85;2.22;;;8.60;99.90;;;;;;5071645;28;20044;-71
2023/05/18 05:13:00;;;;;;;11.82;2.47;;;8.50;99.90;;;;;;5063024;28;20043;-71
2023/05/18 05:15:26;;;;;;;11.15;2.63;;;8.80;99.90;;;;;;5071658;28;20106;-70
2023/05/18 05:17:52;;;;;;;11.15;2.40;;;8.50;99.90;;;;;;5067662;28;20112;-71
2023/05/18 05:20:18;;;;;;;7.72;2.03;;;8.60;99.90;;;;;;5070919;28;20754;-71
2023/05/18 05:22:44;;;;;;;6.80;1.90;;;8.60;99.90;;;;;;5071208;28;20048;-72
2023/05/18 05:25:10;;;;;;;8.80;2.67;;;8.70;99.90;;;;;;5070138;28;20041;-70
2023/05/18 05:27:35;;;;;;;8.40;2.05;;;8.70;99.90;;;;;;5071276;28;20056;-71
2023/05/18 05:30:02;;;;;;;12.90;2.10;;;8.90;99.90;;;;;;5071363;28;20048;-70
2023/05/18 05:32:28;;;;;;;9.07;2.17;;;8.90;99.90;;;;;;5061743;28;20059;-71
2023/05/18 05:34:54;;;;;;;11.98;2.20;;;9.00;99.90;;;;;;5062759;28;20044;-71
2023/05/18 05:37:20;;;;;;;10.75;2.63;;;9.00;99.90;;;;;;5070808;28;20175;-71
2023/05/18 05:39:45;;;;;;;14.85;2.08;;;9.10;99.90;;;;;;5071313;28;20056;-71
2023/05/18 05:42:11;;;;;;;7.82;1.98;;;9.30;99.90;;;;;;5069620;28;20052;-71
2023/05/18 05:44:38;;;;;;;12.55;2.65;;;9.20;99.90;;;;;;5061255;28;20040;-70
2023/05/18 05:47:03;;;;;;;12.93;2.38;;;10.00;99.90;;;;;;5070937;28;20044;-71
2023/05/18 05:49:29;;;;;;;11.15;2.38;;;9.30;99.90;;;;;;5071286;28;20510;-70
2023/05/18 05:51:55;;;;;;;9.80;1.80;;;9.70;99.90;;;;;;5070955;28;20187;-71
2023/05/18 05:54:23;;;;;;;10.20;2.40;;;9.30;99.90;;;;;;5070970;28;20117;-70
2023/05/18 05:56:49;;;;;;;7.32;1.77;;;9.30;99.90;;;;;;5334715;22;20136;-70
2023/05/18 05:59:21;;;;;;;8.93;2.00;;;9.30;99.90;;;;;;5032870;28;20610;-72
2023/05/18 06:01:47;;;;;;;12.45;3.00;;;9.40;99.90;;;;;;5023974;28;20060;-70
2023/05/18 06:04:14;;;;;;;8.70;1.80;;;9.40;99.90;;;;;;5042603;28;20597;-72
2023/05/18 06:06:41;;;;;;;7.72;1.70;;;9.50;99.90;;;;;;5050390;28;20049;-73
2023/05/18 06:09:06;;;;;;;9.45;1.60;;;9.90;99.90;;;;;;5032906;28;20403;-71
2023/05/18 06:11:32;;;;;;;9.70;1.65;;;9.50;99.90;;;;;;5050791;28;20051;-71
2023/05/18 06:13:58;;;;;;;10.20;2.08;;;9.50;99.90;;;;;;5049685;28;20037;-71
2023/05/18 06:16:24;;;;;;;10.82;2.13;;;9.60;99.90;;;;;;5050549;28;20053;-71
2023/05/18 06:18:50;;;;;;;8.95;2.00;;;9.60;99.90;;;;;;5050443;28;20701;-71
2023/05/18 06:21:16;;;;;;;11.25;2.25;;;9.60;99.90;;;;;;5049228;28;20041;-69
2023/05/18 06:23:43;;;;;;;12.80;2.40;;;9.60;99.90;;;;;;5041437;28;20048;-71
2023/05/18 06:26:09;;;;;;;6.97;1.88;;;9.60;99.90;;;;;;5041936;28;20122;-72
2023/05/18 06:28:35;;;;;;;12.18;2.00;;;9.70;99.90;;;;;;5032641;28;20480;-71
2023/05/18 06:31:01;;;;;;;10.85;2.42;;;9.90;99.90;;;;;;5039635;28;20051;-69
2023/05/18 06:33:27;;;;;;;7.45;1.98;;;9.80;99.90;;;;;;5041706;28;20044;-70
2023/05/18 06:35:56;;;;;;;9.43;2.05;;;9.90;99.90;;;;;;5049516;28;20484;-71
2023/05/18 06:38:22;;;;;;;7.78;1.83;;;9.90;99.90;;;;;;5049809;28;20045;-70
2023/05/18 06:40:47;;;;;;;10.50;2.30;;;9.90;99.90;;;;;;5041804;28;20420;-72
2023/05/18 06:43:27;;;;;;;11.63;2.58;;;10.30;99.90;;;;;;5050309;28;20044;-75
2023/05/18 06:45:56;;;;;;;10.70;1.80;;;10.00;99.90;;;;;;5042710;28;20488;-71
2023/05/18 06:48:25;;;;;;;10.65;2.10;;;10.10;99.90;;;;;;5072529;22;20040;-71
2023/05/18 06:50:50;;;;;;;10.02;2.22;;;10.10;99.90;;;;;;5099129;28;20116;-70
2023/05/18 06:53:16;;;;;;;9.52;1.77;;;10.70;99.90;;;;;;5098881;28;20479;-71
2023/05/18 06:55:41;;;;;;;14.27;2.30;;;10.20;99.90;;;;;;5097391;28;20043;-72
2023/05/18 06:58:07;;;;;;;7.95;1.83;;;10.30;99.90;;;;;;5099893;28;20144;-70
2023/05/18 07:00:33;;;;;;;11.75;2.25;;;10.50;99.90;;;;;;5092456;28;20047;-71
2023/05/18 07:03:00;;;;;;;13.00;2.30;;;10.40;99.90;;;;;;5089974;28;20055;-71
2023/05/18 07:05:26;;;;;;;8.90;2.15;;;10.40;99.90;;;;;;5100930;28;20059;-69
2023/05/18 07:07:52;;;;;;;16.00;2.38;;;10.50;99.90;;;;;;5097407;28;20036;-71
2023/05/18 07:10:18;;;;;;;8.43;2.33;;;10.50;99.90;;;;;;5082266;28;20387;-71
2023/05/18 07:12:43;;;;;;;8.77;2.00;;;10.60;99.90;;;;;;5101897;28;20402;-72
2023/05/18 07:15:10;;;;;;;11.15;1.85;;;10.70;99.90;;;;;;5101291;28;20505;-71
2023/05/18 07:17:37;;;;;;;9.55;2.25;;;10.80;99.90;;;;;;5085326;28;20055;-71
2023/05/18 07:20:05;;;;;;;9.38;2.13;;;10.90;99.90;;;;;;5091224;28;20056;-73
2023/05/18 07:22:34;;;;;;;7.45;1.85;;;11.00;99.90;;;;;;5097983;28;20130;-72
2023/05/18 07:25:00;;;;;;;9.48;2.03;;;11.10;99.90;;;;;;5062777;28;20055;-72
2023/05/18 07:27:27;;;;;;;6.53;1.50;;;11.20;99.90;;;;;;5063394;28;20053;-71
2023/05/18 07:29:53;;;;;;;9.02;1.80;;;11.40;99.90;;;;;;5098232;28;20040;-72
2023/05/18 07:32:18;;;;;;;8.52;1.45;;;12.00;99.90;;;;;;5098977;28;20044;-72
2023/05/18 07:34:45;;;;;;;12.13;2.05;;;11.70;99.90;;;;;;5104465;28;20146;-74
2023/05/18 07:37:12;;;;;;;9.70;1.80;;;11.90;99.90;;;;;;5105192;28;20088;-72
2023/05/18 07:39:41;;;;;;;11.80;2.45;;;12.10;99.90;;;;;;5096845;28;20465;-74
2023/05/18 07:42:07;;;;;;;8.48;1.77;;;12.20;99.90;;;;;;5105446;28;20661;-72
2023/05/18 07:44:33;;;;;;;11.20;2.15;;;13.00;99.90;;;;;;5098855;28;20048;-72
2023/05/18 07:46:59;;;;;;;10.63;2.13;;;12.50;99.90;;;;;;5087590;28;20048;-72
2023/05/18 07:49:24;;;;;;;9.20;1.70;;;12.50;99.90;;;;;;5102002;28;20141;-71
2023/05/18 07:51:50;;;;;;;8.75;1.70;;;12.70;99.90;;;;;;5097478;28;20108;-74
2023/05/18 07:54:16;;;;;;;7.72;1.75;;;12.90;99.90;;;;;;5075683;28;20040;-70
2023/05/18 07:56:43;;;;;;;7.63;1.65;;;13.00;99.90;;;;;;5092637;28;20043;-70
2023/05/18 07:59:09;;;;;;;6.95;1.63;;;13.10;99.90;;;;;;5092462;28;20092;-72
2023/05/18 08:01:36;;;;;;;8.90;2.03;;;13.40;99.90;;;;;;5075493;28;20055;-72
2023/05/18 08:04:02;;;;;;;12.85;1.83;;;13.40;99.90;;;;;;5091850;28;20098;-70
2023/05/18 08:06:28;;;;;;;7.80;2.03;;;13.40;99.90;;;;;;5075247;28;20064;-70
2023/05/18 08:08:55;;;;;;;7.65;1.63;;;13.50;99.90;;;;;;5092358;28;20144;-70
2023/05/18 08:11:22;;;;;;;9.23;2.10;;;13.70;99.90;;;;;;5091880;28;20052;-71
2023/05/18 08:13:47;;;;;;;12.10;1.95;;;13.80;99.90;;;;;;5092056;28;20118;-69
2023/05/18 08:16:14;;;;;;;10.55;2.17;;;14.00;99.90;;;;;;5073998;28;20139;-71
2023/05/18 08:18:39;;;;;;;12.60;2.03;;;13.90;99.90;;;;;;5087409;28;20039;-73
2023/05/18 08:21:09;;;;;;;7.70;1.75;;;14.10;99.90;;;;;;5092847;28;20051;-72
2023/05/18 08:23:35;;;;;;;6.65;1.55;;;14.20;99.90;;;;;;5102677;28;20044;-74
2023/05/18 08:26:02;;;;;;;8.73;1.80;;;14.40;99.90;;;;;;5099488;28;20083;-72
2023/05/18 08:28:28;;;;;;;10.55;1.80;;;14.00;99.90;;;;;;5103921;28;20126;-71
2023/05/18 08:30:54;;;;;;;15.35;1.85;;;14.10;99.90;;;;;;5101647;28;20086;-73
2023/05/18 08:33:20;;;;;;;7.72;1.88;;;14.20;99.90;;;;;;5101226;28;20083;-75
2023/05/18 08:35:46;;;;;;;9.48;2.13;;;14.60;99.90;;;;;;5103461;28;20413;-72
2023/05/18 08:38:12;;;;;;;10.90;1.88;;;14.40;99.90;;;;;;5104359;28;20050;-73
2023/05/18 08:41:04;;;;;;;9.20;2.13;;;14.50;99.90;;;;;;5104002;28;20040;-72
2023/05/18 08:43:32;;;;;;;9.13;1.80;;;14.70;99.90;;;;;;5100687;28;20150;-72
2023/05/18 08:46:18;;;;;;;12.52;1.98;;;14.90;99.90;;;;;;5103441;28;20035;-71
2023/05/18 08:48:47;;;;;;;8.30;1.83;;;15.10;99.90;;;;;;5060369;28;20055;-70
2023/05/18 08:51:19;;;;;;;10.77;1.80;;;15.20;99.90;;;;;;5052077;28;20041;-74
2023/05/18 08:53:50;;;;;;;6.30;1.67;;;15.30;99.20;;;;;;5052285;28;20133;-73
2023/05/18 08:56:17;;;;;;;8.38;1.88;;;15.30;99.90;;;;;;5044162;28;20122;-73
2023/05/18 08:58:46;;;;;;;14.88;2.00;;;15.40;99.90;;;;;;5052344;28;20116;-73
2023/05/18 09:01:13;;;;;;;7.95;1.55;;;15.60;99.90;;;;;;5051666;28;20045;-73
2023/05/18 09:03:39;;;;;;;8.18;1.60;;;15.70;99.90;;;;;;5051972;28;20171;-72
2023/05/18 09:06:06;;;;;;;7.90;1.80;;;15.80;99.90;;;;;;5052160;28;20044;-73
2023/05/18 09:08:33;;;;;;;6.43;1.83;;;15.70;99.90;;;;;;5052333;28;20385;-73
2023/05/18 09:11:01;;;;;;;6.68;1.40;;;15.70;99.80;;;;;;5047050;28;20033;-73
2023/05/18 09:13:28;;;;;;;9.27;1.52;;;15.70;99.60;;;;;;5051572;28;20052;-73
2023/05/18 09:15:53;;;;;;;7.70;1.50;;;15.80;99.90;;;;;;5051565;28;20041;-73
2023/05/18 09:18:19;;;;;;;9.48;1.83;;;15.80;99.30;;;;;;5051619;28;20057;-76
2023/05/18 09:20:45;;;;;;;9.65;1.80;;;15.90;99.40;;;;;;5051462;28;20118;-74
2023/05/18 09:23:12;;;;;;;7.72;1.60;;;16.00;98.50;;;;;;5051644;28;20048;-74
2023/05/18 09:25:44;;;;;;;31.92;8.50;;;15.90;99.00;;;;;;5051468;28;20041;-74
2023/05/18 09:28:13;;;;;;;10.00;2.40;;;15.90;99.10;;;;;;5050808;28;20464;-73
2023/05/18 09:30:42;;;;;;;8.48;1.85;;;15.70;98.90;;;;;;5049928;28;20116;-72
2023/05/18 09:33:20;;;;;;;7.85;2.22;;;15.80;98.90;;;;;;5051104;28;20049;-73
2023/05/18 09:35:46;;;;;;;9.35;1.80;;;15.80;99.30;;;;;;5049241;28;20081;-73
2023/05/18 09:38:16;;;;;;;13.82;2.92;;;15.80;98.30;;;;;;5045354;28;20048;-70
2023/05/18 09:40:45;;;;;;;7.70;1.88;;;15.90;98.40;;;;;;5051154;28;20049;-71
2023/05/18 09:43:11;;;;;;;6.20;1.50;;;16.00;98.80;;;;;;5046279;28;20052;-73
2023/05/18 09:45:47;;;;;;;7.63;1.60;;;16.10;98.70;;;;;;5043562;28;20041;-72
2023/05/18 09:48:14;;;;;;;12.30;1.55;;;16.20;98.20;;;;;;5058414;28;20052;-71
2023/05/18 09:50:41;;;;;;;7.57;1.98;;;16.30;98.60;;;;;;5091161;28;20036;-71
2023/05/18 09:53:08;;;;;;;12.65;1.55;;;16.30;98.20;;;;;;5102853;28;20067;-74
2023/05/18 09:55:43;;;;;;;8.65;2.03;;;16.30;98.30;;;;;;5093248;28;20044;-72
2023/05/18 09:58:09;;;;;;;9.07;1.70;;;16.20;97.70;;;;;;5099037;28;20118;-72
2023/05/18 10:00:42;;;;;;;7.50;1.50;;;16.20;98.50;;;;;;5099619;28;20111;-73
2023/05/18 10:03:22;;;;;;;7.22;2.30;;;16.30;98.40;;;;;;5101217;28;20044;-70
2023/05/18 10:05:48;;;;;;;7.90;1.80;;;16.20;97.30;;;;;;5102686;28;20043;-70
2023/05/18 10:08:15;;;;;;;9.35;1.83;;;16.10;98.00;;;;;;5100772;28;20119;-73
2023/05/18 10:10:45;;;;;;;5.65;1.55;;;16.20;97.60;;;;;;5081073;28;20140;-72
2023/05/18 10:13:17;;;;;;;7.00;1.70;;;16.10;98.00;;;;;;5100125;28;20185;-72
2023/05/18 10:15:54;;;;;;;6.82;1.77;;;16.00;97.90;;;;;;5102781;28;20035;-72
2023/05/18 10:18:24;;;;;;;7.38;1.60;;;16.10;97.70;;;;;;5102262;28;20056;-71
2023/05/18 10:20:53;;;;;;;7.85;1.65;;;16.00;98.20;;;;;;5096776;28;20113;-72
2023/05/18 10:23:20;;;;;;;9.63;1.60;;;16.10;98.20;;;;;;5099066;28;20500;-71
2023/05/18 10:25:49;;;;;;;6.00;1.45;;;16.00;98.20;;;;;;5099584;28;20111;-71
2023/05/18 10:28:24;;;;;;;9.38;1.80;;;16.20;98.30;;;;;;5096074;28;20120;-71
2023/05/18 10:30:53;;;;;;;9.20;1.90;;;16.20;97.90;;;;;;5091119;28;20559;-71
2023/05/18 10:33:21;;;;;;;10.70;1.80;;;16.30;98.20;;;;;;5106325;28;20043;-72
2023/05/18 10:35:48;;;;;;;7.25;1.77;;;16.30;98.40;;;;;;5080544;28;20052;-72
2023/05/18 10:38:19;;;;;;;9.63;1.73;;;16.40;98.10;;;;;;5096558;28;20050;-71
2023/05/18 10:40:47;;;;;;;6.80;1.50;;;16.40;97.40;;;;;;5100752;28;20134;-71
2023/05/18 10:43:17;;;;;;;10.10;1.70;;;16.50;97.80;;;;;;5099062;28;20055;-71
2023/05/18 10:45:55;;;;;;;7.78;1.65;;;16.60;97.60;;;;;;5099387;28;20048;-70
2023/05/18 10:48:23;;;;;;;9.27;1.80;;;16.40;97.70;;;;;;5096171;28;20116;-73
2023/05/18 10:50:50;;;;;;;9.90;2.20;;;16.40;96.80;;;;;;5098518;28;20043;-73
2023/05/18 10:53:21;;;;;;;7.10;2.42;;;16.40;97.60;;;;;;5098572;28;20073;-72
2023/05/18 10:55:47;;;;;;;11.20;2.60;;;16.40;97.00;;;;;;5098752;28;20063;-72
2023/05/18 10:58:20;;;;;;;8.40;2.00;;;16.50;97.40;;;;;;5094142;28;20081;-71
2023/05/18 11:00:50;;;;;;;4.43;1.63;;;16.60;97.20;;;;;;5101523;28;20123;-77
2023/05/18 11:03:17;;;;;;;12.50;2.28;;;16.70;97.30;;;;;;5099171;28;20622;-75
2023/05/18 11:05:47;;;;;;;11.68;1.92;;;16.80;97.40;;;;;;5098403;28;20050;-70
2023/05/18 11:08:24;;;;;;;11.70;1.88;;;16.80;97.40;;;;;;5100373;28;20040;-71
2023/05/18 11:11:02;;;;;;;6.30;1.83;;;16.70;97.20;;;;;;5101660;28;20066;-73
2023/05/18 11:13:32;;;;;;;6.10;1.95;;;16.80;97.40;;;;;;5098462;28;20036;-72
2023/05/18 11:15:58;;;;;;;11.73;1.90;;;16.90;97.30;;;;;;5098433;28;20131;-74
2023/05/18 11:18:40;;;;;;;9.25;1.58;;;16.90;97.30;;;;;;5098094;28;20089;-72
2023/05/18 11:21:34;;;;;;;8.02;2.58;;;16.90;97.10;;;;;;5079447;28;20052;-71
2023/05/18 11:24:22;;;;;;;9.00;2.10;;;17.00;97.00;;;;;;5089823;28;20040;-72
2023/05/18 11:26:51;;;;;;;8.05;2.08;;;17.20;96.40;;;;;;5086218;28;20043;-71
2023/05/18 11:29:17;;;;;;;7.28;2.22;;;17.10;97.10;;;;;;5101409;28;20051;-71
2023/05/18 11:31:50;;;;;;;6.50;1.80;;;17.10;97.20;;;;;;5088923;28;20097;-72
2023/05/18 11:34:38;;;;;;;9.43;2.13;;;17.10;97.10;;;;;;5088567;28;20051;-71
2023/05/18 11:37:05;;;;;;;10.48;2.00;;;17.00;96.10;;;;;;5088023;28;20046;-72
2023/05/18 11:39:32;;;;;;;9.13;2.00;;;17.00;96.90;;;;;;5089652;28;20052;-73
2023/05/18 11:42:04;;;;;;;8.23;2.45;;;16.90;96.90;;;;;;5084241;28;20039;-72
2023/05/18 11:44:31;;;;;;;7.25;1.88;;;16.80;97.20;;;;;;5088892;28;20483;-76
2023/05/18 11:47:03;;;;;;;9.15;1.90;;;16.90;97.30;;;;;;5079801;28;20124;-77
2023/05/18 11:49:46;;;;;;;10.30;1.80;;;17.10;97.40;;;;;;5097729;28;20085;-75
2023/05/18 11:52:11;;;;;;;6.63;1.92;;;17.20;96.90;;;;;;5072224;28;20119;-72
2023/05/18 11:54:40;;;;;;;8.52;2.00;;;17.60;97.40;;;;;;5096827;28;20525;-74
2023/05/18 11:57:06;;;;;;;8.40;1.80;;;17.70;96.90;;;;;;5099146;28;20128;-73
2023/05/18 11:59:46;;;;;;;6.85;1.77;;;17.90;96.90;;;;;;5098034;28;20043;-72
2023/05/18 12:02:17;;;;;;;6.93;1.75;;;18.00;96.70;;;;;;5100336;28;20055;-76
2023/05/18 12:04:46;;;;;;;8.82;1.80;;;18.10;96.40;;;;;;5079662;28;20490;-75
2023/05/18 12:07:12;;;;;;;7.15;2.35;;;18.20;96.60;;;;;;5099832;28;20410;-75
2023/05/18 12:09:42;;;;;;;8.05;1.90;;;18.30;96.20;;;;;;5101018;28;20047;-76
2023/05/18 12:12:10;;;;;;;9.15;2.00;;;18.40;95.40;;;;;;5080127;28;20040;-73
2023/05/18 12:14:39;;;;;;;6.85;1.92;;;18.50;96.70;;;;;;5099639;28;20043;-72
2023/05/18 12:17:06;;;;;;;8.27;2.08;;;18.80;96.10;;;;;;5101447;28;20043;-73
2023/05/18 12:19:43;;;;;;;9.07;2.03;;;18.80;96.20;;;;;;5101006;28;20136;-73
2023/05/18 12:22:09;;;;;;;6.70;2.00;;;18.90;95.60;;;;;;5092769;28;20040;-75
2023/05/18 12:24:39;;;;;;;7.80;1.85;;;18.90;95.80;;;;;;5092734;28;20079;-74
2023/05/18 12:27:08;;;;;;;7.25;1.80;;;18.80;95.10;;;;;;5095660;28;20528;-75
2023/05/18 12:29:38;;;;;;;7.97;2.13;;;18.80;95.50;;;;;;5103507;28;20109;-72
2023/05/18 12:32:11;;;;;;;7.20;1.65;;;18.70;95.40;;;;;;5105018;28;20078;-75
2023/05/18 12:34:38;;;;;;;6.90;1.95;;;18.60;95.10;;;;;;5103322;28;20074;-73
2023/05/18 12:37:05;;;;;;;9.25;1.77;;;18.70;95.30;;;;;;5081794;28;20521;-72
2023/05/18 12:39:31;;;;;;;10.82;2.13;;;18.90;95.30;;;;;;5101257;28;20047;-73
2023/05/18 12:42:09;;;;;;;8.05;2.30;;;19.00;95.30;;;;;;5100963;28;20047;-72
2023/05/18 12:44:35;;;;;;;6.80;2.05;;;19.00;95.00;;;;;;5101479;28;20059;-74
2023/05/18 12:47:01;;;;;;;6.43;2.03;;;19.20;94.90;;;;;;5104438;28;20387;-72
2023/05/18 12:49:27;;;;;;;9.77;2.30;;;19.30;95.10;;;;;;5082659;28;20526;-72
2023/05/18 12:51:54;;;;;;;6.97;2.10;;;19.20;95.00;;;;;;5084097;28;20063;-72